KCRS/CRS METAR and TAF weather

Enter ICAO airport designator
Station Type Date Time Source
KCRS METAR 2022/12/08 11:53 UTC NOAA

KCRS 081153Z AUTO 19007KT 10SM BKN016 OVC023 22/19 A3016 RMK AO2 SLP210 T02220194 10228 20211 53002


Station Type Date Time Source
KCRS Decoded METAR 2022/12/08 11:53 UTC NOAA

CORSICANA AIRFIELD, TX, United States (KCRS) 32-01N 96-23W 133M
Dec 08, 2022 - 06:53 AM EST / 2022.12.08 1153 UTC
Wind: from the S (190 degrees) at 8 MPH (7 KT):0
Visibility: 10 mile(s):0
Sky conditions: overcast
Temperature: 72.0 F (22.2 C)
Dew Point: 66.9 F (19.4 C)
Relative Humidity: 84%
Pressure (altimeter): 30.16 in. Hg (1021 hPa)
Pressure tendency: 0.01 inches (0.2 hPa) higher than three hours ago
ob: KCRS 081153Z AUTO 19007KT 10SM BKN016 OVC023 22/19 A3016 RMK AO2 SLP210 T02220194 10228 20211 53002
cycle: 12

Station Type Date Time Source
KCRS TAF UTC NOAA

Error!

Example: see airport list